createdAt,value
2022-08-09T00:00:06.335Z,4.40
2022-08-09T00:02:35.279Z,4.70
2022-08-09T00:06:12.090Z,4.38
2022-08-09T00:07:49.484Z,4.60
2022-08-09T00:10:21.573Z,4.53
2022-08-09T00:12:52.929Z,4.35
2022-08-09T00:15:20.273Z,4.10
2022-08-09T00:18:10.269Z,4.70
2022-08-09T00:23:57.490Z,3.75
2022-08-09T00:25:55.686Z,4.47
2022-08-09T00:28:22.705Z,4.57
2022-08-09T00:30:53.494Z,3.90
2022-08-09T00:33:20.502Z,4.65
2022-08-09T00:35:59.857Z,3.83
2022-08-09T00:38:26.851Z,3.70
2022-08-09T00:40:55.516Z,3.60
2022-08-09T00:44:10.889Z,3.67
2022-08-09T00:46:28.421Z,3.42
2022-08-09T00:49:00.883Z,4.10
2022-08-09T00:51:28.011Z,3.65
2022-08-09T00:54:00.968Z,3.53
2022-08-09T00:56:27.988Z,4.72
2022-08-09T00:58:55.571Z,3.85
2022-08-09T01:01:22.651Z,3.78
2022-08-09T01:03:50.057Z,3.92
2022-08-09T01:06:17.695Z,3.60
2022-08-09T01:08:49.669Z,3.67
2022-08-09T01:11:18.620Z,3.60
2022-08-09T01:13:58.567Z,3.70
2022-08-09T01:16:26.907Z,3.70
2022-08-09T01:19:02.616Z,3.60
2022-08-09T01:21:40.988Z,3.65
2022-08-09T01:24:11.907Z,3.50
2022-08-09T01:26:39.211Z,3.63
2022-08-09T01:29:06.233Z,4.60
2022-08-09T01:32:31.246Z,5.25
2022-08-09T01:34:20.281Z,3.78
2022-08-09T01:36:47.298Z,3.55
2022-08-09T01:39:15.184Z,3.28
2022-08-09T01:41:53.505Z,3.33
2022-08-09T01:44:23.142Z,3.65
2022-08-09T01:46:50.555Z,3.15
2022-08-09T01:49:20.968Z,3.40
2022-08-09T01:51:53.039Z,4.18
2022-08-09T01:54:21.481Z,3.25
2022-08-09T01:56:51.681Z,3.20
2022-08-09T01:59:19.087Z,3.45
2022-08-09T02:01:58.304Z,3.53
2022-08-09T02:04:27.509Z,3.20
2022-08-09T02:06:58.674Z,3.33
2022-08-09T02:09:26.099Z,3.05
2022-08-09T02:12:09.438Z,3.15
2022-08-09T02:14:36.453Z,3.05
2022-08-09T02:17:29.459Z,3.60
2022-08-09T02:19:51.864Z,3.60
2022-08-09T02:22:19.123Z,3.50
2022-08-09T02:24:58.857Z,3.10
2022-08-09T02:27:42.986Z,3.45
2022-08-09T02:30:13.204Z,3.20
2022-08-09T02:32:42.611Z,3.65
2022-08-09T02:35:17.500Z,3.17
2022-08-09T02:37:45.414Z,3.72
2022-08-09T02:40:12.542Z,3.33
2022-08-09T02:42:39.591Z,3.75
2022-08-09T02:45:06.808Z,4.13
2022-08-09T02:47:58.010Z,3.95
2022-08-09T02:50:20.826Z,3.33
2022-08-09T02:52:55.177Z,3.97
2022-08-09T02:55:22.577Z,4.00
2022-08-09T02:58:00.454Z,3.50
2022-08-09T03:00:36.593Z,3.15
2022-08-09T03:03:14.685Z,4.05
2022-08-09T03:05:48.753Z,3.63
2022-08-09T03:08:22.600Z,3.78
2022-08-09T03:10:50.820Z,3.55
2022-08-09T03:13:18.006Z,3.53
2022-08-09T03:16:06.465Z,3.67
2022-08-09T03:18:32.000Z,4.00
2022-08-09T03:20:59.140Z,3.70
2022-08-09T03:23:26.142Z,3.92
2022-08-09T03:26:03.187Z,3.50
2022-08-09T03:28:31.660Z,3.30
2022-08-09T03:31:00.016Z,3.60
2022-08-09T03:33:53.175Z,3.58
2022-08-09T03:36:22.017Z,3.63
2022-08-09T03:38:54.888Z,3.50
2022-08-09T03:41:42.979Z,3.10
2022-08-09T03:44:12.125Z,3.50
2022-08-09T03:46:39.421Z,3.63
2022-08-09T03:49:08.046Z,3.80
2022-08-09T03:51:55.509Z,3.60
2022-08-09T03:54:29.316Z,3.83
2022-08-09T03:56:57.958Z,3.88
2022-08-09T03:59:42.739Z,3.58
2022-08-09T04:02:12.215Z,3.92
2022-08-09T04:04:41.417Z,3.58
2022-08-09T04:07:14.476Z,4.30
2022-08-09T04:09:48.970Z,3.67
2022-08-09T04:12:40.578Z,3.50
2022-08-09T04:15:11.555Z,3.67
2022-08-09T04:17:44.399Z,3.53
2022-08-09T04:20:14.461Z,3.72
2022-08-09T04:22:44.288Z,3.70
2022-08-09T04:25:11.554Z,3.97
2022-08-09T04:27:39.963Z,3.97
2022-08-09T04:30:08.616Z,3.10
2022-08-09T04:32:37.384Z,3.42
2022-08-09T04:35:05.741Z,3.28
2022-08-09T04:37:45.102Z,3.70
2022-08-09T04:40:19.677Z,3.85
2022-08-09T04:43:00.590Z,3.90
2022-08-09T04:45:30.339Z,3.60
2022-08-09T04:48:00.348Z,3.50
2022-08-09T04:50:33.677Z,3.60
2022-08-09T04:53:02.207Z,3.55
2022-08-09T04:55:39.613Z,3.50
2022-08-09T04:58:16.274Z,4.30
2022-08-09T05:00:43.489Z,3.42
2022-08-09T05:03:30.717Z,3.72
2022-08-09T05:06:06.805Z,3.72
2022-08-09T05:08:34.422Z,3.38
2022-08-09T05:11:02.586Z,3.55
2022-08-09T05:13:33.176Z,3.35
2022-08-09T05:16:00.845Z,3.72
2022-08-09T05:18:42.043Z,3.47
2022-08-09T05:21:22.997Z,3.45
2022-08-09T05:23:58.447Z,3.70
2022-08-09T05:26:45.786Z,3.63
2022-08-09T05:29:17.509Z,3.90
2022-08-09T05:31:56.420Z,3.97
2022-08-09T05:34:30.181Z,4.57
2022-08-09T05:36:59.053Z,4.03
2022-08-09T05:39:35.769Z,4.00
2022-08-09T05:42:04.872Z,3.80
2022-08-09T05:44:34.584Z,4.30
2022-08-09T05:47:04.965Z,4.22
2022-08-09T05:50:31.135Z,3.78
2022-08-09T05:52:19.721Z,4.20
2022-08-09T05:54:46.714Z,4.45
2022-08-09T05:57:17.674Z,3.72
2022-08-09T05:59:46.235Z,4.47
2022-08-09T06:02:17.149Z,4.38
2022-08-09T06:04:46.029Z,4.30
2022-08-09T06:07:21.735Z,4.40
2022-08-09T06:10:01.471Z,4.10
2022-08-09T06:12:29.560Z,4.50
2022-08-09T06:15:00.659Z,5.13
2022-08-09T06:17:39.980Z,5.85
2022-08-09T06:20:07.741Z,5.95
2022-08-09T06:22:35.310Z,5.35
2022-08-09T06:25:02.604Z,6.50
2022-08-09T06:27:42.481Z,6.43
2022-08-09T06:30:10.332Z,5.47
2022-08-09T06:32:53.311Z,6.25
2022-08-09T06:35:35.675Z,6.82
2022-08-09T06:38:11.303Z,7.03
2022-08-09T06:40:42.880Z,7.00
2022-08-09T06:43:10.506Z,6.72
2022-08-09T06:46:05.235Z,7.18
2022-08-09T06:48:30.750Z,7.18
2022-08-09T06:50:58.316Z,7.32
2022-08-09T06:53:25.327Z,7.63
2022-08-09T06:55:52.622Z,7.40
2022-08-09T07:00:47.221Z,8.65
2022-08-09T07:01:07.999Z,6.85
2022-08-09T07:03:39.806Z,7.35
2022-08-09T07:06:19.652Z,7.55
2022-08-09T07:08:49.609Z,7.80
2022-08-09T07:11:23.366Z,7.30
2022-08-09T07:14:05.291Z,8.32
2022-08-09T07:16:39.564Z,6.90
2022-08-09T07:19:10.059Z,6.65
2022-08-09T07:21:50.208Z,6.15
2022-08-09T07:24:31.825Z,6.60
2022-08-09T07:27:00.202Z,6.63
2022-08-09T07:29:27.205Z,6.25
2022-08-09T07:32:05.198Z,5.45
2022-08-09T07:34:32.856Z,6.13
2022-08-09T07:37:02.656Z,6.20
2022-08-09T07:39:40.340Z,5.93
2022-08-09T07:42:09.384Z,6.10
2022-08-09T07:44:51.965Z,5.72
2022-08-09T07:47:20.887Z,5.90
2022-08-09T07:50:04.588Z,5.20
2022-08-09T07:55:00.127Z,5.53
2022-08-09T07:57:35.973Z,4.88
2022-08-09T08:00:04.166Z,4.85
2022-08-09T08:02:31.680Z,4.60
2022-08-09T08:04:59.238Z,5.00
2022-08-09T08:08:42.655Z,4.63
2022-08-09T08:10:13.224Z,5.28
2022-08-09T08:12:43.612Z,3.90
2022-08-09T08:15:11.239Z,4.50
2022-08-09T08:17:53.742Z,5.70
2022-08-09T08:20:28.990Z,4.70
2022-08-09T08:23:03.345Z,4.43
2022-08-09T08:25:40.328Z,4.13
2022-08-09T08:28:14.242Z,4.40
2022-08-09T08:30:41.949Z,4.85
2022-08-09T08:33:11.900Z,4.20
2022-08-09T08:35:58.916Z,4.70
2022-08-09T08:38:27.970Z,4.95
2022-08-09T08:40:55.224Z,3.95
2022-08-09T08:43:23.282Z,5.38
2022-08-09T08:45:53.555Z,5.20
2022-08-09T08:48:31.402Z,4.60
2022-08-09T08:50:58.705Z,4.45
2022-08-09T08:53:32.199Z,5.40
2022-08-09T08:56:04.433Z,3.28
2022-08-09T08:58:31.439Z,4.53
2022-08-09T09:00:59.991Z,10.05
2022-08-09T09:03:33.175Z,4.20
2022-08-09T09:06:05.416Z,3.47
2022-08-09T09:08:35.194Z,3.42
2022-08-09T09:11:07.615Z,3.58
2022-08-09T09:13:47.421Z,3.40
2022-08-09T09:16:29.925Z,3.85
2022-08-09T09:19:22.588Z,3.67
2022-08-09T09:21:46.895Z,2.80
2022-08-09T09:24:21.633Z,2.50
2022-08-09T09:26:49.147Z,4.45
2022-08-09T09:29:19.070Z,2.83
2022-08-09T09:32:05.852Z,3.53
2022-08-09T09:34:33.191Z,2.78
2022-08-09T09:37:00.626Z,2.13
2022-08-09T09:39:54.555Z,2.00
2022-08-09T09:42:15.492Z,3.05
2022-08-09T09:44:45.119Z,1.90
2022-08-09T09:47:12.311Z,2.05
2022-08-09T09:50:07.749Z,1.92
2022-08-09T09:52:36.450Z,2.05
2022-08-09T09:55:16.495Z,2.00
2022-08-09T09:58:03.355Z,2.10
2022-08-09T10:00:32.220Z,2.17
2022-08-09T10:03:11.482Z,1.98
2022-08-09T10:06:00.881Z,1.92
2022-08-09T10:08:28.611Z,2.03
2022-08-09T10:10:55.790Z,2.60
2022-08-09T10:13:24.558Z,1.90
2022-08-09T10:16:57.311Z,2.08
2022-08-09T10:18:56.822Z,2.05
2022-08-09T10:21:27.024Z,1.77
2022-08-09T10:23:54.023Z,2.33
2022-08-09T10:26:21.027Z,2.03
2022-08-09T10:29:38.055Z,2.03
2022-08-09T10:34:33.772Z,2.28
2022-08-09T10:37:03.163Z,2.00
2022-08-09T10:39:30.237Z,1.80
2022-08-09T10:42:08.020Z,1.52
2022-08-09T10:44:37.093Z,1.40
2022-08-09T10:47:20.389Z,1.70
2022-08-09T10:49:54.561Z,1.30
2022-08-09T10:52:21.660Z,1.90
2022-08-09T10:54:53.612Z,1.52
2022-08-09T10:57:20.662Z,1.90
2022-08-09T10:59:57.928Z,1.52
2022-08-09T11:03:10.824Z,1.40
2022-08-09T11:05:24.812Z,1.42
2022-08-09T11:07:59.230Z,1.50
2022-08-09T11:10:29.267Z,1.67
2022-08-09T11:12:56.393Z,1.40
2022-08-09T11:15:23.975Z,1.45
2022-08-09T11:17:53.484Z,1.80
2022-08-09T11:20:24.074Z,2.00
2022-08-09T11:22:56.768Z,1.83
2022-08-09T11:25:26.050Z,1.80
2022-08-09T11:28:27.640Z,1.60
2022-08-09T11:30:50.430Z,1.60
2022-08-09T11:33:18.110Z,1.70
2022-08-09T11:35:49.891Z,1.70
2022-08-09T11:38:18.964Z,1.30
2022-08-09T11:40:45.960Z,1.40
2022-08-09T11:43:12.975Z,1.40
2022-08-09T11:45:42.713Z,1.45
2022-08-09T11:48:18.846Z,1.50
2022-08-09T11:50:54.129Z,1.98
2022-08-09T11:53:59.408Z,2.22
2022-08-09T11:56:11.304Z,1.63
2022-08-09T11:58:50.242Z,1.75
2022-08-09T12:02:16.289Z,1.40
2022-08-09T12:04:04.487Z,1.75
2022-08-09T12:06:32.705Z,1.70
2022-08-09T12:09:01.996Z,1.80
2022-08-09T12:11:28.986Z,1.40
2022-08-09T12:14:09.378Z,1.33
2022-08-09T12:16:40.153Z,1.33
2022-08-09T12:19:07.325Z,2.20
2022-08-09T12:21:38.516Z,1.73
2022-08-09T12:24:09.134Z,1.70
2022-08-09T12:26:36.822Z,10.90
2022-08-09T12:29:23.999Z,2.20
2022-08-09T12:32:01.802Z,1.80
2022-08-09T12:34:29.888Z,1.90
2022-08-09T12:36:58.568Z,1.40
2022-08-09T12:39:26.332Z,1.33
2022-08-09T12:41:54.679Z,1.60
2022-08-09T12:44:24.483Z,2.55
2022-08-09T12:46:51.703Z,1.83
2022-08-09T12:49:18.716Z,1.42
2022-08-09T12:51:52.610Z,1.50
2022-08-09T12:54:28.781Z,1.65
2022-08-09T12:56:58.039Z,2.63
2022-08-09T12:59:25.055Z,1.83
2022-08-09T13:02:12.355Z,1.60
2022-08-09T13:04:42.281Z,1.30
2022-08-09T13:07:09.281Z,1.33
2022-08-09T13:09:38.100Z,1.60
2022-08-09T13:12:08.006Z,1.55
2022-08-09T13:14:40.564Z,1.40
2022-08-09T13:17:08.965Z,1.40
2022-08-09T13:20:07.208Z,1.75
2022-08-09T13:22:35.527Z,1.50
2022-08-09T13:25:07.386Z,1.70
2022-08-09T13:27:40.233Z,1.70
2022-08-09T13:30:50.842Z,1.80
2022-08-09T13:33:03.030Z,1.48
2022-08-09T13:35:34.563Z,1.80
2022-08-09T13:38:32.821Z,1.80
2022-08-09T13:41:55.967Z,1.50
2022-08-09T13:43:51.172Z,1.90
2022-08-09T13:47:16.780Z,1.80
2022-08-09T13:49:05.266Z,2.20
2022-08-09T13:51:32.358Z,1.65
2022-08-09T13:54:01.736Z,1.80
2022-08-09T13:56:29.502Z,1.73
2022-08-09T13:58:58.785Z,1.98
2022-08-09T14:02:01.381Z,1.60
2022-08-09T14:04:12.919Z,1.70
2022-08-09T14:06:43.660Z,1.90
2022-08-09T14:09:13.606Z,1.60
2022-08-09T14:11:41.298Z,1.77
2022-08-09T14:14:24.857Z,1.60
2022-08-09T14:16:53.943Z,1.85
2022-08-09T14:19:21.168Z,1.80
2022-08-09T14:21:49.541Z,1.80
2022-08-09T14:24:21.953Z,1.80
2022-08-09T14:26:59.009Z,1.40
2022-08-09T14:30:34.646Z,1.90
2022-08-09T14:32:16.309Z,1.60
2022-08-09T14:34:46.774Z,2.17
2022-08-09T14:37:28.149Z,2.00
2022-08-09T14:39:55.706Z,1.48
2022-08-09T14:42:30.950Z,1.80
2022-08-09T14:45:00.685Z,1.80
2022-08-09T14:47:46.309Z,1.65
2022-08-09T14:50:15.991Z,1.80
2022-08-09T14:52:43.591Z,1.83
2022-08-09T14:55:19.901Z,1.83
2022-08-09T14:57:47.752Z,1.70
2022-08-09T15:00:16.043Z,1.67
2022-08-09T15:02:47.219Z,1.65
2022-08-09T15:05:18.557Z,1.80
2022-08-09T15:07:56.242Z,1.90
2022-08-09T15:10:24.878Z,2.08
2022-08-09T15:12:52.309Z,1.67
2022-08-09T15:15:19.331Z,1.60
2022-08-09T15:17:51.751Z,2.05
2022-08-09T15:21:56.828Z,2.30
2022-08-09T15:24:03.643Z,1.60
2022-08-09T15:25:53.985Z,1.60
2022-08-09T15:28:27.285Z,1.60
2022-08-09T15:31:01.252Z,1.60
2022-08-09T15:34:17.546Z,1.80
2022-08-09T15:36:17.695Z,1.95
2022-08-09T15:38:45.260Z,1.73
2022-08-09T15:41:12.469Z,1.52
2022-08-09T15:43:49.380Z,1.40
2022-08-09T15:46:33.380Z,1.58
2022-08-09T15:49:22.253Z,1.40
2022-08-09T15:52:03.264Z,1.80
2022-08-09T15:54:44.373Z,1.70
2022-08-09T15:57:19.112Z,1.45
2022-08-09T16:00:02.581Z,1.63
2022-08-09T16:02:29.687Z,1.55
2022-08-09T16:04:56.700Z,1.70
2022-08-09T16:07:23.715Z,1.52
2022-08-09T16:10:04.907Z,1.63
2022-08-09T16:12:32.809Z,1.70
2022-08-09T16:15:00.031Z,1.60
2022-08-09T16:17:28.814Z,2.15
2022-08-09T16:20:04.525Z,1.33
2022-08-09T16:22:36.027Z,1.70
2022-08-09T16:25:09.017Z,2.65
2022-08-09T16:27:37.647Z,1.70
2022-08-09T16:30:06.209Z,1.42
2022-08-09T16:32:35.156Z,1.77
2022-08-09T16:35:02.707Z,1.67
2022-08-09T16:37:53.045Z,1.80
2022-08-09T16:40:20.398Z,1.90
2022-08-09T16:42:47.921Z,1.40
2022-08-09T16:45:16.707Z,1.98
2022-08-09T16:48:40.748Z,2.15
2022-08-09T16:50:34.122Z,2.00
2022-08-09T16:53:01.697Z,1.60
2022-08-09T16:55:31.447Z,1.95
2022-08-09T16:58:16.469Z,1.60
2022-08-09T17:00:43.683Z,1.73
2022-08-09T17:03:22.071Z,1.92
2022-08-09T17:06:08.685Z,1.88
2022-08-09T17:08:46.595Z,1.48
2022-08-09T17:11:24.403Z,1.70
2022-08-09T17:14:01.805Z,1.60
2022-08-09T17:16:29.276Z,1.60
2022-08-09T17:18:56.319Z,1.40
2022-08-09T17:21:25.403Z,2.03
2022-08-09T17:24:28.425Z,2.33
2022-08-09T17:26:44.256Z,1.60
2022-08-09T17:29:21.039Z,1.50
2022-08-09T17:31:49.218Z,1.80
2022-08-09T17:34:59.747Z,2.20
2022-08-09T17:37:03.496Z,2.33
2022-08-09T17:39:52.651Z,1.40
2022-08-09T17:42:41.439Z,2.15
2022-08-09T17:45:06.318Z,2.00
2022-08-09T17:47:42.806Z,1.77
2022-08-09T17:50:24.978Z,1.80
2022-08-09T17:53:04.781Z,2.22
2022-08-09T17:55:49.415Z,1.92
2022-08-09T17:58:17.366Z,1.80
2022-08-09T18:00:47.910Z,2.00
2022-08-09T18:03:17.821Z,1.83
2022-08-09T18:05:45.565Z,2.70
2022-08-09T18:08:21.908Z,2.10
2022-08-09T18:11:01.736Z,1.85
2022-08-09T18:13:40.621Z,2.40
2022-08-09T18:16:16.741Z,2.10
2022-08-09T18:18:49.191Z,1.95
2022-08-09T18:21:22.905Z,2.00
2022-08-09T18:24:11.543Z,2.40
2022-08-09T18:26:38.199Z,1.55
2022-08-09T18:30:37.958Z,2.22
2022-08-09T18:32:02.794Z,1.90
2022-08-09T18:34:30.190Z,1.85
2022-08-09T18:36:57.232Z,2.75
2022-08-09T18:39:24.294Z,2.13
2022-08-09T18:41:53.228Z,1.60
2022-08-09T18:44:20.691Z,1.85
2022-08-09T18:47:07.681Z,1.92
2022-08-09T18:49:41.637Z,2.13
2022-08-09T18:52:11.816Z,1.90
2022-08-09T18:54:38.992Z,1.83
2022-08-09T18:57:09.159Z,1.90
2022-08-09T18:59:49.080Z,2.47
2022-08-09T19:02:19.243Z,1.60
2022-08-09T19:04:47.814Z,1.80
2022-08-09T19:07:31.458Z,1.80
2022-08-09T19:10:14.668Z,1.90
2022-08-09T19:12:50.300Z,2.10
2022-08-09T19:15:26.374Z,2.20
2022-08-09T19:17:55.033Z,1.80
2022-08-09T19:20:23.685Z,2.00
2022-08-09T19:22:54.732Z,1.85
2022-08-09T19:25:42.741Z,1.80
2022-08-09T19:28:09.135Z,2.40
2022-08-09T19:30:40.555Z,2.10
2022-08-09T19:33:19.175Z,1.90
2022-08-09T19:35:57.993Z,1.70
2022-08-09T19:38:25.853Z,1.70
2022-08-09T19:40:53.351Z,1.50
2022-08-09T19:44:00.666Z,1.83
2022-08-09T19:46:07.435Z,2.00
2022-08-09T19:49:00.520Z,1.50
2022-08-09T19:51:22.002Z,2.00
2022-08-09T19:53:49.057Z,1.67
2022-08-09T19:56:16.111Z,2.25
2022-08-09T19:58:43.125Z,1.85
2022-08-09T20:01:30.142Z,1.80
2022-08-09T20:04:29.887Z,2.95
2022-08-09T20:07:04.220Z,1.85
2022-08-09T20:09:44.578Z,2.42
2022-08-09T20:12:27.485Z,2.38
2022-08-09T20:14:59.600Z,2.15
2022-08-09T20:17:26.708Z,1.77
2022-08-09T20:20:08.391Z,1.75
2022-08-09T20:22:37.914Z,2.38
2022-08-09T20:25:09.851Z,1.92
2022-08-09T20:27:39.847Z,2.13
2022-08-09T20:30:07.394Z,2.10
2022-08-09T20:32:36.642Z,1.80
2022-08-09T20:35:03.947Z,2.00
2022-08-09T20:38:19.518Z,1.80
2022-08-09T20:40:26.554Z,2.10
2022-08-09T20:43:00.457Z,1.70
2022-08-09T20:45:57.261Z,2.00
2022-08-09T20:48:30.890Z,2.25
2022-08-09T20:50:58.669Z,1.70
2022-08-09T20:53:36.565Z,2.47
2022-08-09T20:56:05.451Z,2.13
2022-08-09T20:58:33.109Z,2.05
2022-08-09T21:01:14.304Z,1.77
2022-08-09T21:04:08.051Z,2.65
2022-08-09T21:06:34.194Z,1.73
2022-08-09T21:09:02.829Z,2.03
2022-08-09T21:14:17.591Z,2.13
2022-08-09T21:16:45.787Z,1.80
2022-08-09T21:20:17.183Z,2.00
2022-08-09T21:21:59.964Z,2.35
2022-08-09T21:24:29.007Z,2.22
2022-08-09T21:27:00.845Z,2.35
2022-08-09T21:29:49.239Z,2.50
2022-08-09T21:32:18.501Z,2.28
2022-08-09T21:34:48.421Z,1.95
2022-08-09T21:37:18.482Z,2.10
2022-08-09T21:39:49.727Z,2.00
2022-08-09T21:42:16.957Z,2.20
2022-08-09T21:44:43.968Z,2.10
2022-08-09T21:47:11.610Z,2.47
2022-08-09T21:49:44.793Z,3.10
2022-08-09T21:52:14.724Z,2.45
2022-08-09T21:54:46.202Z,2.67
2022-08-09T21:57:36.882Z,3.20
2022-08-09T22:00:00.426Z,2.90
2022-08-09T22:02:36.280Z,1.80
2022-08-09T22:05:08.854Z,2.45
2022-08-09T22:07:52.142Z,2.67
2022-08-09T22:10:23.096Z,2.95
2022-08-09T22:12:51.129Z,2.40
2022-08-09T22:15:20.739Z,2.97
2022-08-09T22:17:50.577Z,2.60
2022-08-09T22:20:27.168Z,2.50
2022-08-09T22:22:54.611Z,2.55
2022-08-09T22:26:07.195Z,2.70
2022-08-09T22:28:08.629Z,2.42
2022-08-09T22:30:36.725Z,3.10
2022-08-09T22:33:03.837Z,2.40
2022-08-09T22:36:01.247Z,2.33
2022-08-09T22:38:23.794Z,2.22
2022-08-09T22:40:57.219Z,3.00
2022-08-09T22:44:00.464Z,2.10
2022-08-09T22:48:14.950Z,2.50
2022-08-09T22:49:01.881Z,3.35
2022-08-09T22:51:38.369Z,2.97
2022-08-09T22:54:08.247Z,2.42
2022-08-09T22:56:38.106Z,2.50
2022-08-09T22:59:55.369Z,2.30
2022-08-09T23:01:55.774Z,3.05
2022-08-09T23:04:22.942Z,2.10
2022-08-09T23:06:52.607Z,3.17
2022-08-09T23:09:19.605Z,2.20
2022-08-09T23:11:46.615Z,2.30
2022-08-09T23:14:17.181Z,2.15
2022-08-09T23:16:44.590Z,2.45
2022-08-09T23:19:11.601Z,2.15
2022-08-09T23:21:39.382Z,1.98
2022-08-09T23:24:07.358Z,3.00
2022-08-09T23:26:34.464Z,2.42
2022-08-09T23:29:01.489Z,2.75
2022-08-09T23:31:28.488Z,2.40
2022-08-09T23:33:55.508Z,2.80
2022-08-09T23:36:22.531Z,2.58
2022-08-09T23:38:49.623Z,3.60
2022-08-09T23:41:28.835Z,4.03
2022-08-09T23:43:56.427Z,3.28
2022-08-09T23:46:23.426Z,2.58
2022-08-09T23:48:50.442Z,3.42
2022-08-09T23:51:17.453Z,2.53
2022-08-09T23:53:44.457Z,2.40
2022-08-09T23:56:11.445Z,2.50
2022-08-09T23:58:38.442Z,3.40
